GW1546 Weather Reports


Display with metric or nautical units.
time (UTC)temp
F
wind
direction
speed
MPH
gust
MPH
rain 1hr
in
rain 24hr
in
rain mn
in
humidity
%
barometer
mb
20221128152104 46 150 1.0 2.0 0.00 0.00 0.04 87 987.4
20221128150310 46 94 2.0 5.0 0.00 0.00 0.04 82 987.8
20221128145307 46 5 2.0 3.0 0.00 0.00 0.04 85 987.4
20221128140508 45 141 0.0 2.0 0.00 0.00 0.04 93 986.4
20221128131605 45 157 0.0 0.0 0.00 0.00 0.04 97 985.7
20221128124604 44 157 0.0 0.0 0.00 0.00 0.04 97 985.4
20221128121903 44 110 0.0 2.0 0.00 0.00 0.04 94 985.4
20221128114308 45 221 1.0 3.0 0.00 0.00 0.04 97 984.7
20221128111306 45 293 1.0 2.0 0.00 0.00 0.04 95 984.0
20221128110105 45 308 3.0 4.0 0.00 0.00 0.04 94 983.7
20221128102102 45 263 2.0 3.0 0.00 0.00 0.04 92 983.4
20221128100601 45 318 3.0 6.0 0.00 0.00 0.04 90 983.0
20221128094505 45 310 2.0 5.0 0.00 0.00 0.04 92 982.7
20221128081706 48 274 3.0 5.0 0.00 0.00 0.03 91
20221128073403 50 96 0.0 2.0 0.00 0.00 0.00 92
20221128064906 51 105 1.0 2.0 0.00 0.00 0.00 84
20221128062503 52 67 2.0 3.0 0.00 0.00 0.00 79
20221128055801 52 113 1.0 3.0 0.00 0.00 0.00 77
20221128050104 55 212 1.0 2.0 0.00 0.00 0.00 65
20221128041307 57 208 1.0 6.0 0.00 0.00 0.10 57
20221128035705 57 333 2.0 4.0 0.00 0.00 0.10 57
20221128033908 57 65 1.0 2.0 0.00 0.00 0.10 60
20221128032701 57 151 2.0 9.0 0.00 0.00 0.10 55
20221128030003 58 106 1.0 3.0 0.00 0.00 0.10 57
20221128024503 58 324 2.0 4.0 0.00 0.00 0.10 53
20221128005102 60 202 1.0 3.0 0.00 0.00 0.10 55
20221128003003 61 140 2.0 9.0 0.00 0.00 0.10 46
20221127234402 62 123 3.0 5.0 0.00 0.00 0.10 43
20221127231703 63 205 2.0 4.0 0.00 0.00 0.10 45
20221127224402 65 318 2.0 4.0 0.00 0.00 0.10 39
20221127215602 65 80 2.0 5.0 0.00 0.00 0.10 45
20221127211405 68 68 2.0 6.0 0.00 0.00 0.10 39
20221127205604 69 3 2.0 5.0 0.00 0.00 0.10 40
20221127204102 69 98 4.0 9.0 0.00 0.00 0.10 39
20221127201402 70 135 3.0 6.0 0.00 0.00 0.10 41
20221127195908 71 91 3.0 5.0 0.00 0.00 0.10 38
20221127184405 70 58 2.0 5.0 0.00 0.00 0.10 43
20221127183205 71 84 3.0 5.0 0.00 0.00 0.10 49
20221127182204 72 187 4.0 9.0 0.00 0.00 0.10 46
20221127180405 71 63 6.0 9.0 0.00 0.00 0.10 51
20221127173104 72 91 2.0 3.0 0.00 0.00 0.10 55
20221127171902 72 74 5.0 9.0 0.00 0.00 0.09 56
20221127170403 72 143 6.0 10.0 0.00 0.00 0.09 59
20221127162203 70 114 2.0 4.0 0.00 0.00 0.09 69
20221127160307 66 139 1.0 4.0 0.00 0.00 0.09 82
20221127154401 61 100 1.0 3.0 0.00 0.00 0.09 94